createdAt,value
2023-06-24T00:00:23.230Z,20.91
2023-06-24T00:02:52.510Z,20.72
2023-06-24T00:05:19.425Z,20.66
2023-06-24T00:07:46.705Z,20.64
2023-06-24T00:10:16.074Z,20.57
2023-06-24T00:12:44.175Z,20.51
2023-06-24T00:15:11.606Z,20.47
2023-06-24T00:17:38.842Z,20.49
2023-06-24T00:20:08.501Z,20.52
2023-06-24T00:22:35.262Z,20.56
2023-06-24T00:25:02.017Z,20.65
2023-06-24T00:27:28.762Z,20.61
2023-06-24T00:29:55.417Z,20.71
2023-06-24T00:32:22.249Z,20.57
2023-06-24T00:34:48.965Z,20.45
2023-06-24T00:37:15.823Z,20.32
2023-06-24T00:39:42.520Z,20.28
2023-06-24T00:42:11.934Z,20.40
2023-06-24T00:44:38.879Z,20.37
2023-06-24T00:47:06.087Z,20.48
2023-06-24T00:49:32.834Z,20.37
2023-06-24T00:52:02.152Z,20.31
2023-06-24T00:54:32.433Z,20.20
2023-06-24T00:57:03.126Z,20.19
2023-06-24T00:59:31.311Z,20.20
2023-06-24T01:01:58.317Z,20.19
2023-06-24T01:04:26.362Z,20.17
2023-06-24T01:06:53.901Z,20.14
2023-06-24T01:09:21.489Z,20.09
2023-06-24T01:11:49.837Z,20.11
2023-06-24T01:14:21.328Z,20.10
2023-06-24T01:17:02.040Z,20.20
2023-06-24T01:19:55.073Z,20.11
2023-06-24T01:22:59.557Z,20.02
2023-06-24T01:26:10.807Z,20.01
2023-06-24T01:29:08.257Z,19.91
2023-06-24T01:31:59.950Z,20.01
2023-06-24T01:34:38.105Z,20.14
2023-06-24T01:37:14.368Z,20.13
2023-06-24T01:39:54.103Z,20.17
2023-06-24T01:42:23.013Z,20.21
2023-06-24T01:44:50.982Z,20.08
2023-06-24T01:47:21.614Z,20.21
2023-06-24T01:49:50.679Z,20.17
2023-06-24T01:52:19.608Z,20.04
2023-06-24T01:54:49.107Z,20.07
2023-06-24T01:57:19.312Z,20.19
2023-06-24T01:59:47.637Z,20.22
2023-06-24T02:02:15.291Z,20.21
2023-06-24T02:04:43.850Z,20.15
2023-06-24T02:07:12.762Z,20.06
2023-06-24T02:09:40.338Z,20.20
2023-06-24T02:12:09.402Z,20.07
2023-06-24T02:14:38.047Z,20.07
2023-06-24T02:17:07.306Z,19.95
2023-06-24T02:19:36.812Z,20.03
2023-06-24T02:22:05.876Z,20.10
2023-06-24T02:24:33.297Z,20.05
2023-06-24T02:27:00.390Z,20.12
2023-06-24T02:29:28.938Z,20.06
2023-06-24T02:31:55.803Z,20.07
2023-06-24T02:34:25.146Z,20.02
2023-06-24T02:36:52.130Z,20.07
2023-06-24T02:39:19.515Z,19.97
2023-06-24T02:41:51.328Z,19.99
2023-06-24T02:44:18.225Z,19.97
2023-06-24T02:46:47.259Z,19.94
2023-06-24T02:49:16.957Z,20.10
2023-06-24T02:51:44.190Z,20.03
2023-06-24T02:54:12.781Z,19.98
2023-06-24T02:56:43.084Z,19.96
2023-06-24T02:59:10.679Z,19.87
2023-06-24T03:01:40.171Z,19.93
2023-06-24T03:04:07.240Z,19.87
2023-06-24T03:06:38.072Z,19.88
2023-06-24T03:09:05.405Z,19.89
2023-06-24T03:11:32.150Z,19.97
2023-06-24T03:13:59.225Z,19.99
2023-06-24T03:16:26.003Z,20.08
2023-06-24T03:18:52.706Z,19.94
2023-06-24T03:21:19.454Z,19.98
2023-06-24T03:23:46.233Z,20.01
2023-06-24T03:26:12.942Z,19.88
2023-06-24T03:28:40.034Z,19.87
2023-06-24T03:31:06.818Z,19.94
2023-06-24T03:33:33.503Z,20.02
2023-06-24T03:36:00.250Z,19.84
2023-06-24T03:38:27.012Z,19.82
2023-06-24T03:40:53.750Z,19.86
2023-06-24T03:43:20.587Z,19.90
2023-06-24T03:45:47.365Z,19.81
2023-06-24T03:48:14.229Z,19.93
2023-06-24T03:50:40.914Z,19.80
2023-06-24T03:53:07.638Z,19.88
2023-06-24T03:55:34.590Z,19.83
2023-06-24T03:58:04.067Z,19.74
2023-06-24T04:00:30.760Z,19.76
2023-06-24T04:02:57.526Z,19.87
2023-06-24T04:05:25.854Z,19.87
2023-06-24T04:07:53.598Z,19.81
2023-06-24T04:10:20.497Z,19.75
2023-06-24T04:12:47.334Z,19.80
2023-06-24T04:15:14.058Z,19.84
2023-06-24T04:17:43.651Z,19.83
2023-06-24T04:20:11.273Z,19.74
2023-06-24T04:22:39.270Z,19.91
2023-06-24T04:25:09.032Z,19.93
2023-06-24T04:27:36.294Z,19.89
2023-06-24T04:30:04.493Z,19.87
2023-06-24T04:32:33.740Z,19.83
2023-06-24T04:35:02.183Z,19.95
2023-06-24T04:37:29.099Z,19.97
2023-06-24T04:39:56.029Z,20.00
2023-06-24T04:42:23.960Z,20.11
2023-06-24T04:44:53.518Z,20.11
2023-06-24T04:47:20.860Z,20.21
2023-06-24T04:49:47.756Z,20.11
2023-06-24T04:52:14.964Z,20.11
2023-06-24T04:54:41.650Z,20.07
2023-06-24T04:57:11.058Z,19.99
2023-06-24T04:59:39.516Z,20.01
2023-06-24T05:02:06.301Z,19.84
2023-06-24T05:04:33.044Z,19.83
2023-06-24T05:06:59.793Z,19.72
2023-06-24T05:09:26.581Z,19.56
2023-06-24T05:11:53.303Z,19.66
2023-06-24T05:14:19.952Z,19.68
2023-06-24T05:16:46.849Z,19.89
2023-06-24T05:19:13.550Z,20.14
2023-06-24T05:21:40.335Z,20.32
2023-06-24T05:24:07.319Z,20.20
2023-06-24T05:26:34.015Z,20.52
2023-06-24T05:29:00.659Z,20.34
2023-06-24T05:31:27.979Z,20.46
2023-06-24T05:33:54.624Z,20.58
2023-06-24T05:36:21.362Z,20.62
2023-06-24T05:38:49.843Z,20.57
2023-06-24T05:41:16.590Z,20.59
2023-06-24T05:43:44.941Z,20.51
2023-06-24T05:46:11.809Z,20.44
2023-06-24T05:48:38.622Z,20.58
2023-06-24T05:51:05.307Z,20.85
2023-06-24T05:53:32.056Z,20.81
2023-06-24T05:55:58.697Z,20.70
2023-06-24T05:58:25.367Z,20.87
2023-06-24T06:00:52.124Z,20.78
2023-06-24T06:03:18.819Z,20.59
2023-06-24T06:05:45.579Z,20.38
2023-06-24T06:08:12.430Z,20.30
2023-06-24T06:10:39.265Z,20.42
2023-06-24T06:13:06.052Z,20.53
2023-06-24T06:15:32.868Z,20.65
2023-06-24T06:17:59.769Z,20.61
2023-06-24T06:20:26.613Z,20.59
2023-06-24T06:22:53.373Z,20.74
2023-06-24T06:25:20.121Z,20.69
2023-06-24T06:27:46.885Z,20.74
2023-06-24T06:30:14.657Z,20.73
2023-06-24T06:32:41.579Z,20.57
2023-06-24T06:35:09.061Z,20.77
2023-06-24T06:37:35.866Z,20.98
2023-06-24T06:40:03.429Z,21.17
2023-06-24T06:42:31.160Z,21.12
2023-06-24T06:44:57.900Z,21.14
2023-06-24T06:47:24.847Z,21.09
2023-06-24T06:49:51.568Z,20.93
2023-06-24T06:52:20.749Z,21.10
2023-06-24T06:54:47.452Z,21.17
2023-06-24T06:57:14.189Z,21.24
2023-06-24T06:59:41.062Z,21.04
2023-06-24T07:02:08.028Z,21.03
2023-06-24T07:04:34.784Z,21.03
2023-06-24T07:07:01.543Z,21.17
2023-06-24T07:09:28.239Z,21.16
2023-06-24T07:11:55.099Z,21.18
2023-06-24T07:14:21.862Z,21.29
2023-06-24T07:16:48.624Z,21.35
2023-06-24T07:19:15.386Z,21.35
2023-06-24T07:21:42.072Z,21.42
2023-06-24T07:24:08.819Z,21.60
2023-06-24T07:26:35.590Z,21.61
2023-06-24T07:29:08.478Z,21.65
2023-06-24T07:31:37.947Z,21.73
2023-06-24T07:34:05.691Z,21.80
2023-06-24T07:36:32.797Z,21.73
2023-06-24T07:38:59.520Z,21.94
2023-06-24T07:41:26.414Z,21.95
2023-06-24T07:43:53.108Z,22.11
2023-06-24T07:46:19.809Z,22.14
2023-06-24T07:48:46.472Z,22.19
2023-06-24T07:51:13.190Z,22.37
2023-06-24T07:53:39.828Z,22.34
2023-06-24T07:56:06.510Z,22.35
2023-06-24T07:58:35.112Z,22.28
2023-06-24T08:01:01.860Z,22.39
2023-06-24T08:03:28.622Z,22.58
2023-06-24T08:05:55.869Z,22.64
2023-06-24T08:08:22.483Z,22.68
2023-06-24T08:10:49.211Z,22.79
2023-06-24T08:13:15.918Z,22.80
2023-06-24T08:15:43.017Z,22.78
2023-06-24T08:18:09.797Z,22.85
2023-06-24T08:20:36.472Z,22.89
2023-06-24T08:23:03.332Z,23.09
2023-06-24T08:25:49.012Z,22.96
2023-06-24T08:28:34.314Z,22.98
2023-06-24T08:31:01.109Z,23.13
2023-06-24T08:33:27.716Z,23.25
2023-06-24T08:35:54.371Z,23.35
2023-06-24T08:38:20.999Z,23.39
2023-06-24T08:40:48.307Z,23.47
2023-06-24T08:43:14.989Z,23.54
2023-06-24T08:45:41.602Z,23.64
2023-06-24T08:48:09.095Z,23.68
2023-06-24T08:50:45.049Z,23.64
2023-06-24T08:53:12.694Z,23.61
2023-06-24T08:55:45.046Z,23.64
2023-06-24T08:58:11.832Z,23.69
2023-06-24T09:00:38.550Z,23.77
2023-06-24T09:03:05.256Z,23.87
2023-06-24T09:05:31.979Z,23.92
2023-06-24T09:07:58.659Z,23.93
2023-06-24T09:10:36.055Z,23.98
2023-06-24T09:13:03.965Z,24.01
2023-06-24T09:15:37.792Z,24.09
2023-06-24T09:18:05.866Z,24.12
2023-06-24T09:20:33.720Z,24.17
2023-06-24T09:23:02.096Z,24.17
2023-06-24T09:25:29.210Z,24.20
2023-06-24T09:27:57.708Z,24.24
2023-06-24T09:30:24.744Z,24.29
2023-06-24T09:32:52.899Z,24.29
2023-06-24T09:35:22.333Z,24.40
2023-06-24T09:37:52.884Z,24.41
2023-06-24T09:40:20.551Z,24.37
2023-06-24T09:43:05.368Z,24.37
2023-06-24T09:45:32.015Z,24.48
2023-06-24T09:47:59.405Z,24.50
2023-06-24T09:50:26.182Z,24.58
2023-06-24T09:52:54.023Z,24.55
2023-06-24T09:55:20.704Z,24.54
2023-06-24T09:57:51.051Z,24.66
2023-06-24T10:00:20.052Z,24.71
2023-06-24T10:02:49.894Z,24.71
2023-06-24T10:05:16.914Z,24.81
2023-06-24T10:07:44.491Z,24.78
2023-06-24T10:10:11.518Z,24.80
2023-06-24T10:12:39.085Z,24.84
2023-06-24T10:15:07.203Z,24.87
2023-06-24T10:17:34.049Z,24.88
2023-06-24T10:20:05.444Z,24.94
2023-06-24T10:22:33.153Z,24.79
2023-06-24T10:25:06.641Z,24.76
2023-06-24T10:27:40.609Z,24.85
2023-06-24T10:30:09.025Z,24.99
2023-06-24T10:32:46.303Z,25.04
2023-06-24T10:35:33.426Z,24.99
2023-06-24T10:38:01.885Z,25.01
2023-06-24T10:40:38.697Z,25.11
2023-06-24T10:43:23.965Z,25.21
2023-06-24T10:45:54.847Z,25.19
2023-06-24T10:48:22.104Z,25.17
2023-06-24T10:50:52.206Z,25.09
2023-06-24T10:53:21.782Z,25.11
2023-06-24T10:55:48.595Z,25.22
2023-06-24T10:58:16.830Z,25.24
2023-06-24T11:00:48.208Z,25.31
2023-06-24T11:03:16.970Z,25.35
2023-06-24T11:05:45.967Z,25.43
2023-06-24T11:08:12.900Z,25.45
2023-06-24T11:10:49.391Z,25.48
2023-06-24T11:13:16.462Z,25.44
2023-06-24T11:15:43.753Z,25.50
2023-06-24T11:18:11.492Z,25.56
2023-06-24T11:20:39.731Z,25.59
2023-06-24T11:23:11.717Z,25.56
2023-06-24T11:25:43.110Z,25.63
2023-06-24T11:28:22.592Z,25.68
2023-06-24T11:30:50.070Z,25.72
2023-06-24T11:33:28.283Z,25.84
2023-06-24T11:35:54.887Z,25.90
2023-06-24T11:38:21.508Z,25.87
2023-06-24T11:40:50.089Z,25.89
2023-06-24T11:43:16.724Z,25.87
2023-06-24T11:45:43.475Z,25.94
2023-06-24T11:48:10.071Z,25.93
2023-06-24T11:50:37.705Z,26.04
2023-06-24T11:53:04.579Z,26.00
2023-06-24T11:55:32.532Z,26.06
2023-06-24T11:58:00.256Z,26.05
2023-06-24T12:00:40.944Z,26.03
2023-06-24T12:03:11.770Z,26.03
2023-06-24T12:05:46.198Z,26.03
2023-06-24T12:08:16.807Z,26.10
2023-06-24T12:10:45.120Z,26.12
2023-06-24T12:13:11.864Z,26.10
2023-06-24T12:15:38.593Z,26.08
2023-06-24T12:18:06.659Z,26.16
2023-06-24T12:20:37.212Z,26.11
2023-06-24T12:23:05.257Z,26.22
2023-06-24T12:25:31.956Z,26.24
2023-06-24T12:28:00.843Z,26.31
2023-06-24T12:30:27.799Z,26.31
2023-06-24T12:32:54.565Z,26.33
2023-06-24T12:35:21.369Z,26.43
2023-06-24T12:37:49.027Z,26.51
2023-06-24T12:40:15.754Z,26.48
2023-06-24T12:42:42.387Z,26.45
2023-06-24T12:45:09.482Z,26.43
2023-06-24T12:47:36.164Z,26.37
2023-06-24T12:50:09.371Z,26.49
2023-06-24T12:52:36.835Z,26.59
2023-06-24T12:55:05.058Z,26.49
2023-06-24T12:57:31.858Z,26.50
2023-06-24T12:59:58.558Z,26.54
2023-06-24T13:02:25.219Z,26.61
2023-06-24T13:04:51.964Z,26.55
2023-06-24T13:07:18.637Z,26.51
2023-06-24T13:09:45.251Z,26.58
2023-06-24T13:12:11.892Z,26.58
2023-06-24T13:14:38.590Z,26.60
2023-06-24T13:17:05.418Z,26.61
2023-06-24T13:19:33.650Z,26.72
2023-06-24T13:22:00.644Z,26.68
2023-06-24T13:24:27.345Z,26.75
2023-06-24T13:26:54.010Z,26.73
2023-06-24T13:29:21.797Z,26.69
2023-06-24T13:31:48.489Z,26.74
2023-06-24T13:34:15.636Z,26.82
2023-06-24T13:36:42.434Z,26.87
2023-06-24T13:39:13.603Z,26.78
2023-06-24T13:41:40.744Z,26.84
2023-06-24T13:44:07.581Z,26.86
2023-06-24T13:46:37.097Z,26.88
2023-06-24T13:49:06.134Z,26.88
2023-06-24T13:51:33.170Z,26.79
2023-06-24T13:53:59.914Z,26.87
2023-06-24T13:56:27.370Z,26.78
2023-06-24T13:58:55.262Z,26.80
2023-06-24T14:01:22.793Z,26.73
2023-06-24T14:03:50.458Z,26.68
2023-06-24T14:06:20.095Z,26.70
2023-06-24T14:08:47.067Z,26.73
2023-06-24T14:11:14.010Z,26.68
2023-06-24T14:13:41.204Z,26.79
2023-06-24T14:16:07.907Z,26.77
2023-06-24T14:18:35.803Z,26.82
2023-06-24T14:21:04.738Z,26.83
2023-06-24T14:23:32.229Z,26.90
2023-06-24T14:26:00.334Z,26.91
2023-06-24T14:28:27.397Z,26.89
2023-06-24T14:30:54.159Z,26.90
2023-06-24T14:33:20.823Z,26.98
2023-06-24T14:35:47.562Z,27.01
2023-06-24T14:38:14.305Z,27.05
2023-06-24T14:40:40.985Z,27.07
2023-06-24T14:43:07.590Z,27.13
2023-06-24T14:45:34.278Z,27.13
2023-06-24T14:48:01.009Z,26.99
2023-06-24T14:50:27.832Z,27.08
2023-06-24T14:52:54.500Z,27.08
2023-06-24T14:55:21.120Z,27.16
2023-06-24T14:57:47.789Z,27.16
2023-06-24T15:00:14.718Z,27.15
2023-06-24T15:02:41.427Z,27.20
2023-06-24T15:05:08.538Z,27.17
2023-06-24T15:07:36.066Z,27.12
2023-06-24T15:10:02.812Z,27.20
2023-06-24T15:12:29.409Z,27.17
2023-06-24T15:14:56.102Z,27.13
2023-06-24T15:17:25.063Z,27.10
2023-06-24T15:19:52.688Z,27.15
2023-06-24T15:22:19.392Z,27.26
2023-06-24T15:24:46.329Z,27.28
2023-06-24T15:27:13.148Z,27.23
2023-06-24T15:29:39.923Z,27.18
2023-06-24T15:32:07.130Z,27.13
2023-06-24T15:34:33.795Z,27.14
2023-06-24T15:37:00.482Z,27.16
2023-06-24T15:39:27.114Z,27.26
2023-06-24T15:41:53.849Z,27.26
2023-06-24T15:44:20.568Z,27.32
2023-06-24T15:46:48.494Z,27.26
2023-06-24T15:49:18.083Z,27.25
2023-06-24T15:51:45.013Z,27.17
2023-06-24T15:54:11.611Z,27.18
2023-06-24T15:56:38.301Z,27.24
2023-06-24T15:59:04.964Z,27.28
2023-06-24T16:01:31.985Z,27.36
2023-06-24T16:03:58.936Z,27.39
2023-06-24T16:06:25.661Z,27.44
2023-06-24T16:08:52.753Z,27.50
2023-06-24T16:11:19.658Z,27.56
2023-06-24T16:13:46.607Z,27.58
2023-06-24T16:16:13.282Z,27.58
2023-06-24T16:18:40.293Z,27.65
2023-06-24T16:21:07.171Z,27.74
2023-06-24T16:23:33.897Z,27.64
2023-06-24T16:26:01.809Z,27.59
2023-06-24T16:28:29.211Z,27.71
2023-06-24T16:30:56.020Z,27.63
2023-06-24T16:33:22.762Z,27.65
2023-06-24T16:35:49.527Z,27.70
2023-06-24T16:38:16.192Z,27.58
2023-06-24T16:40:42.943Z,27.66
2023-06-24T16:43:10.579Z,27.60
2023-06-24T16:45:37.275Z,27.77
2023-06-24T16:48:04.773Z,27.67
2023-06-24T16:50:31.645Z,27.77
2023-06-24T16:52:58.513Z,27.77
2023-06-24T16:55:25.326Z,27.79
2023-06-24T16:57:52.029Z,27.86
2023-06-24T17:00:18.884Z,27.84
2023-06-24T17:02:45.633Z,27.84
2023-06-24T17:05:12.713Z,28.06
2023-06-24T17:07:39.347Z,28.10
2023-06-24T17:10:06.451Z,28.01
2023-06-24T17:12:33.160Z,28.13
2023-06-24T17:14:59.791Z,28.36
2023-06-24T17:17:26.472Z,28.42
2023-06-24T17:19:53.128Z,28.56
2023-06-24T17:22:19.791Z,28.48
2023-06-24T17:24:46.382Z,28.18
2023-06-24T17:27:13.008Z,27.98
2023-06-24T17:29:39.602Z,27.74
2023-06-24T17:32:06.481Z,27.69
2023-06-24T17:34:33.169Z,27.59
2023-06-24T17:36:59.772Z,27.37
2023-06-24T17:39:27.833Z,27.32
2023-06-24T17:41:54.961Z,27.32
2023-06-24T17:44:21.590Z,27.26
2023-06-24T17:46:48.223Z,27.19
2023-06-24T17:49:14.823Z,27.09
2023-06-24T17:51:41.438Z,27.13
2023-06-24T17:54:08.094Z,27.13
2023-06-24T17:56:35.204Z,27.18
2023-06-24T17:59:02.093Z,27.15
2023-06-24T18:01:31.388Z,27.09
2023-06-24T18:03:58.092Z,27.11
2023-06-24T18:06:25.154Z,27.08
2023-06-24T18:08:51.850Z,27.09
2023-06-24T18:11:18.519Z,27.04
2023-06-24T18:13:45.302Z,26.95
2023-06-24T18:16:11.994Z,26.94
2023-06-24T18:18:38.626Z,26.88
2023-06-24T18:21:05.268Z,26.82
2023-06-24T18:23:32.424Z,26.81
2023-06-24T18:25:59.026Z,26.74
2023-06-24T18:28:25.687Z,26.68
2023-06-24T18:30:52.866Z,26.76
2023-06-24T18:33:19.549Z,26.72
2023-06-24T18:35:46.442Z,26.75
2023-06-24T18:38:13.191Z,26.76
2023-06-24T18:40:42.681Z,26.70
2023-06-24T18:43:10.508Z,26.68
2023-06-24T18:45:38.275Z,26.61
2023-06-24T18:48:05.094Z,26.59
2023-06-24T18:50:31.802Z,26.54
2023-06-24T18:52:58.403Z,26.53
2023-06-24T18:55:26.367Z,26.56
2023-06-24T18:57:53.047Z,26.48
2023-06-24T19:00:19.792Z,26.47
2023-06-24T19:02:46.441Z,26.44
2023-06-24T19:05:13.110Z,26.40
2023-06-24T19:07:39.721Z,26.46
2023-06-24T19:10:06.511Z,26.40
2023-06-24T19:12:33.177Z,26.28
2023-06-24T19:14:59.792Z,26.27
2023-06-24T19:17:26.415Z,26.28
2023-06-24T19:19:53.055Z,26.28
2023-06-24T19:22:19.660Z,26.22
2023-06-24T19:24:46.315Z,26.18
2023-06-24T19:27:12.923Z,26.11
2023-06-24T19:29:39.582Z,26.07
2023-06-24T19:32:07.099Z,26.08
2023-06-24T19:34:34.426Z,26.09
2023-06-24T19:37:02.171Z,26.05
2023-06-24T19:41:58.339Z,25.99
2023-06-24T19:44:25.008Z,25.94
2023-06-24T19:46:51.671Z,25.92
2023-06-24T19:49:18.393Z,25.85
2023-06-24T19:51:45.003Z,25.87
2023-06-24T19:54:11.646Z,25.74
2023-06-24T19:56:38.264Z,25.76
2023-06-24T19:59:04.996Z,25.72
2023-06-24T20:01:31.661Z,25.75
2023-06-24T20:03:58.314Z,25.73
2023-06-24T20:06:24.956Z,25.70
2023-06-24T20:08:51.632Z,25.60
2023-06-24T20:11:18.258Z,25.61
2023-06-24T20:13:46.126Z,25.55
2023-06-24T20:16:12.719Z,25.54
2023-06-24T20:18:39.311Z,25.46
2023-06-24T20:21:06.038Z,25.48
2023-06-24T20:23:32.703Z,25.42
2023-06-24T20:25:59.464Z,25.36
2023-06-24T20:28:26.284Z,25.38
2023-06-24T20:30:56.699Z,25.37
2023-06-24T20:33:24.884Z,25.34
2023-06-24T20:35:51.566Z,25.32
2023-06-24T20:38:18.200Z,25.24
2023-06-24T20:40:44.787Z,25.19
2023-06-24T20:43:11.391Z,25.14
2023-06-24T20:45:38.022Z,25.13
2023-06-24T20:48:04.791Z,25.08
2023-06-24T20:50:31.654Z,25.01
2023-06-24T20:52:58.268Z,24.93
2023-06-24T20:55:28.469Z,24.91
2023-06-24T20:57:55.026Z,24.83
2023-06-24T21:00:21.666Z,24.75
2023-06-24T21:02:48.346Z,24.64
2023-06-24T21:05:15.047Z,24.52
2023-06-24T21:07:41.639Z,24.49
2023-06-24T21:10:08.621Z,24.40
2023-06-24T21:12:43.412Z,24.38
2023-06-24T21:15:20.209Z,24.36
2023-06-24T21:17:47.011Z,24.34
2023-06-24T21:20:13.817Z,24.23
2023-06-24T21:22:40.452Z,24.25
2023-06-24T21:25:07.590Z,24.19
2023-06-24T21:27:34.315Z,24.13
2023-06-24T21:30:00.952Z,24.13
2023-06-24T21:32:27.656Z,24.17
2023-06-24T21:34:54.272Z,24.03
2023-06-24T21:37:20.854Z,24.05
2023-06-24T21:39:47.597Z,23.98
2023-06-24T21:42:14.208Z,23.93
2023-06-24T21:44:40.840Z,23.89
2023-06-24T21:47:08.292Z,23.87
2023-06-24T21:49:35.107Z,23.93
2023-06-24T21:52:01.690Z,23.94
2023-06-24T21:54:28.313Z,23.97
2023-06-24T21:56:55.365Z,23.98
2023-06-24T21:59:22.932Z,23.97
2023-06-24T22:01:49.760Z,23.88
2023-06-24T22:04:16.435Z,23.94
2023-06-24T22:06:43.898Z,23.91
2023-06-24T22:09:10.577Z,23.91
2023-06-24T22:11:37.223Z,23.80
2023-06-24T22:14:03.850Z,23.77
2023-06-24T22:16:30.452Z,23.66
2023-06-24T22:18:57.131Z,23.55
2023-06-24T22:21:24.311Z,23.64
2023-06-24T22:23:51.074Z,23.68
2023-06-24T22:26:17.706Z,23.65
2023-06-24T22:28:44.309Z,23.62
2023-06-24T22:31:11.090Z,23.65
2023-06-24T22:33:37.701Z,23.54
2023-06-24T22:36:04.606Z,23.54
2023-06-24T22:38:31.208Z,23.46
2023-06-24T22:40:57.903Z,23.46
2023-06-24T22:43:24.505Z,23.47
2023-06-24T22:45:51.129Z,23.39
2023-06-24T22:48:17.809Z,23.36
2023-06-24T22:50:44.500Z,23.36
2023-06-24T22:53:11.227Z,23.32
2023-06-24T22:55:37.879Z,23.29
2023-06-24T22:58:04.517Z,23.31
2023-06-24T23:00:31.168Z,23.22
2023-06-24T23:02:58.816Z,23.17
2023-06-24T23:05:25.902Z,23.11
2023-06-24T23:07:52.723Z,23.20
2023-06-24T23:10:19.918Z,23.26
2023-06-24T23:12:48.442Z,23.14
2023-06-24T23:15:15.704Z,23.12
2023-06-24T23:17:43.241Z,23.04
2023-06-24T23:20:10.631Z,22.99
2023-06-24T23:22:37.513Z,22.90
2023-06-24T23:25:04.514Z,22.92
2023-06-24T23:27:37.408Z,22.90
2023-06-24T23:30:08.071Z,22.86
2023-06-24T23:32:38.293Z,22.85
2023-06-24T23:35:14.256Z,22.88
2023-06-24T23:37:41.536Z,22.69
2023-06-24T23:40:08.953Z,22.82
2023-06-24T23:42:38.846Z,22.86
2023-06-24T23:45:07.368Z,22.82
2023-06-24T23:47:33.991Z,22.69
2023-06-24T23:50:00.725Z,22.68
2023-06-24T23:52:27.398Z,22.74
2023-06-24T23:54:54.051Z,22.63
2023-06-24T23:57:21.065Z,22.61
2023-06-24T23:59:47.670Z,22.67
